Terminal Aerodrome Forecast
Issued by NWS Denver/Boulder, CO

Home | Current Version | Previous Version | Text Only | Print | Product List | Glossary On
Versions: 1 2 3 4 5 6 7 8 9 10 11 12 13 14 15 16 17 18 19 20 21 22 23 24 25 26 27 28 29 30 31 32 33 34 35 36 37 38 39 40 41 42 43 44 45 46 47 48 49 50
000
FTUS45 KBOU 282202 AAB
TAFDEN
TAF AMD
KDEN 282202Z 2822/2924 01009KT P6SM FEW090 SCT130 BKN220
     FM290200 21008KT P6SM SCT090 BKN180
     FM290900 25007KT P6SM SCT050 BKN080
     FM291100 01012KT P6SM VCSH SCT025 OVC050
      TEMPO 2912/2914 01012G22KT 3SM -SHSN SCT015 BKN025
     FM291400 04015G25KT 3/4SM -SN BR SCT008 OVC012 PROB30 2916/2920
      1/2SM SN FG BKN008=

USA.gov is the U.S. government's official web portal to all federal, state and local government web resources and services.